Grand Marsh, Wisconsin
Current Conditions -  °F | °C
As of 2:21 AM on Friday 31 Oct 2014 (Local Time) from KY50 Reporting Station
Overcast Overcast  
Wind Chill: 26°   Ceiling: 2700
Heat Index: 36°   Visibility: 10mi
Dew Point: 28°   Wind: 15mph
Humidity: 75%   Direction: 320°NW
Pressure: 30.11"   Gusts: 23mph
Location:  43.89°N, 89.71°W
Report Text: KY50 310721Z AUTO 32013G20KT 10SM BKN027 OVC095 02/M02 A3011 RMK AO2 TSNO OVC V BKN
Loading
Personal Weather Stations






























Interactive Weather Map
Tropical Storm Tracking
New forecast layout! Learn more

10-Day Weather Forecast

Advertisements
Track Severe Weather on mobile